sensor_id;sensor_type;location;lat;lon;timestamp;P1;durP1;ratioP1;P2;durP2;ratioP2
14900;SDS011;7542;49.078;9.194;2023-05-16T00:00:25;2.55;;;2.45;;
14900;SDS011;7542;49.078;9.194;2023-05-16T00:01:28;2.63;;;2.53;;
14900;SDS011;7542;49.078;9.194;2023-05-16T00:02:30;3.00;;;2.90;;
14900;SDS011;7542;49.078;9.194;2023-05-16T00:03:33;3.45;;;3.20;;
14900;SDS011;7542;49.078;9.194;2023-05-16T00:04:35;3.60;;;3.40;;
14900;SDS011;7542;49.078;9.194;2023-05-16T00:05:37;3.07;;;2.97;;
14900;SDS011;7542;49.078;9.194;2023-05-16T00:06:39;2.80;;;2.70;;
14900;SDS011;7542;49.078;9.194;2023-05-16T00:07:42;3.13;;;2.60;;
14900;SDS011;7542;49.078;9.194;2023-05-16T00:08:46;3.00;;;2.90;;
14900;SDS011;7542;49.078;9.194;2023-05-16T00:09:49;3.22;;;3.13;;
14900;SDS011;7542;49.078;9.194;2023-05-16T00:10:51;4.00;;;3.80;;
14900;SDS011;7542;49.078;9.194;2023-05-16T00:11:53;3.53;;;3.40;;
14900;SDS011;7542;49.078;9.194;2023-05-16T00:12:55;3.70;;;3.50;;
14900;SDS011;7542;49.078;9.194;2023-05-16T00:13:57;3.77;;;3.50;;
14900;SDS011;7542;49.078;9.194;2023-05-16T00:15:00;4.00;;;3.70;;
14900;SDS011;7542;49.078;9.194;2023-05-16T00:16:02;4.27;;;3.90;;
14900;SDS011;7542;49.078;9.194;2023-05-16T00:17:05;4.10;;;3.80;;
14900;SDS011;7542;49.078;9.194;2023-05-16T00:18:12;4.72;;;4.30;;
14900;SDS011;7542;49.078;9.194;2023-05-16T00:19:16;4.10;;;3.80;;
14900;SDS011;7542;49.078;9.194;2023-05-16T00:20:19;3.90;;;3.70;;
14900;SDS011;7542;49.078;9.194;2023-05-16T00:21:23;4.10;;;3.90;;
14900;SDS011;7542;49.078;9.194;2023-05-16T00:22:26;3.90;;;3.60;;
14900;SDS011;7542;49.078;9.194;2023-05-16T00:23:28;4.23;;;3.87;;
14900;SDS011;7542;49.078;9.194;2023-05-16T00:24:32;3.47;;;3.33;;
14900;SDS011;7542;49.078;9.194;2023-05-16T00:25:35;3.50;;;3.20;;
14900;SDS011;7542;49.078;9.194;2023-05-16T00:26:37;2.90;;;2.80;;
14900;SDS011;7542;49.078;9.194;2023-05-16T00:27:39;5.30;;;2.70;;
14900;SDS011;7542;49.078;9.194;2023-05-16T00:28:41;2.90;;;2.73;;
14900;SDS011;7542;49.078;9.194;2023-05-16T00:29:43;2.90;;;2.80;;
14900;SDS011;7542;49.078;9.194;2023-05-16T00:30:45;2.60;;;2.50;;
14900;SDS011;7542;49.078;9.194;2023-05-16T00:31:48;2.77;;;2.67;;
14900;SDS011;7542;49.078;9.194;2023-05-16T00:32:51;2.90;;;2.80;;
14900;SDS011;7542;49.078;9.194;2023-05-16T00:33:55;3.10;;;2.90;;
14900;SDS011;7542;49.078;9.194;2023-05-16T00:34:57;2.73;;;2.60;;
14900;SDS011;7542;49.078;9.194;2023-05-16T00:35:59;2.53;;;2.43;;
14900;SDS011;7542;49.078;9.194;2023-05-16T00:37:01;2.90;;;2.80;;
14900;SDS011;7542;49.078;9.194;2023-05-16T00:38:03;2.87;;;2.73;;
14900;SDS011;7542;49.078;9.194;2023-05-16T00:39:06;2.50;;;2.40;;
14900;SDS011;7542;49.078;9.194;2023-05-16T00:40:08;2.60;;;2.50;;
14900;SDS011;7542;49.078;9.194;2023-05-16T00:41:10;2.77;;;2.60;;
14900;SDS011;7542;49.078;9.194;2023-05-16T00:42:13;2.73;;;2.63;;
14900;SDS011;7542;49.078;9.194;2023-05-16T00:43:15;2.90;;;2.70;;
14900;SDS011;7542;49.078;9.194;2023-05-16T00:44:17;2.93;;;2.73;;
14900;SDS011;7542;49.078;9.194;2023-05-16T00:45:19;3.00;;;2.80;;
14900;SDS011;7542;49.078;9.194;2023-05-16T00:46:22;2.60;;;2.50;;
14900;SDS011;7542;49.078;9.194;2023-05-16T00:47:24;2.67;;;2.57;;
14900;SDS011;7542;49.078;9.194;2023-05-16T00:48:27;2.80;;;2.70;;
14900;SDS011;7542;49.078;9.194;2023-05-16T00:49:29;2.67;;;2.57;;
14900;SDS011;7542;49.078;9.194;2023-05-16T00:50:32;2.63;;;2.53;;
14900;SDS011;7542;49.078;9.194;2023-05-16T00:51:35;2.70;;;2.60;;
14900;SDS011;7542;49.078;9.194;2023-05-16T00:52:39;2.73;;;2.63;;
14900;SDS011;7542;49.078;9.194;2023-05-16T00:53:41;2.60;;;2.40;;
14900;SDS011;7542;49.078;9.194;2023-05-16T00:54:44;2.40;;;2.30;;
14900;SDS011;7542;49.078;9.194;2023-05-16T00:55:47;2.90;;;2.70;;
14900;SDS011;7542;49.078;9.194;2023-05-16T00:56:48;2.37;;;2.27;;
14900;SDS011;7542;49.078;9.194;2023-05-16T00:57:51;2.60;;;2.50;;
14900;SDS011;7542;49.078;9.194;2023-05-16T00:58:53;2.70;;;2.60;;
14900;SDS011;7542;49.078;9.194;2023-05-16T00:59:55;2.70;;;2.60;;
14900;SDS011;7542;49.078;9.194;2023-05-16T01:00:57;2.70;;;2.50;;
14900;SDS011;7542;49.078;9.194;2023-05-16T01:01:59;2.43;;;2.33;;
14900;SDS011;7542;49.078;9.194;2023-05-16T01:03:01;2.57;;;2.47;;
14900;SDS011;7542;49.078;9.194;2023-05-16T01:04:08;3.43;;;2.50;;
14900;SDS011;7542;49.078;9.194;2023-05-16T01:05:10;2.57;;;2.47;;
14900;SDS011;7542;49.078;9.194;2023-05-16T01:06:13;2.63;;;2.53;;
14900;SDS011;7542;49.078;9.194;2023-05-16T01:07:15;2.50;;;2.40;;
14900;SDS011;7542;49.078;9.194;2023-05-16T01:08:17;2.77;;;2.60;;
14900;SDS011;7542;49.078;9.194;2023-05-16T01:09:20;2.60;;;2.50;;
14900;SDS011;7542;49.078;9.194;2023-05-16T01:10:22;2.43;;;2.33;;
14900;SDS011;7542;49.078;9.194;2023-05-16T01:13:17;2.57;;;2.47;;
14900;SDS011;7542;49.078;9.194;2023-05-16T01:15:55;2.90;;;2.70;;
14900;SDS011;7542;49.078;9.194;2023-05-16T01:17:12;2.63;;;2.50;;
14900;SDS011;7542;49.078;9.194;2023-05-16T01:18:46;2.60;;;2.50;;
14900;SDS011;7542;49.078;9.194;2023-05-16T01:21:09;2.77;;;2.67;;
14900;SDS011;7542;49.078;9.194;2023-05-16T01:22:28;2.63;;;2.53;;
14900;SDS011;7542;49.078;9.194;2023-05-16T01:24:12;2.70;;;2.60;;
14900;SDS011;7542;49.078;9.194;2023-05-16T01:27:10;2.23;;;2.23;;
14900;SDS011;7542;49.078;9.194;2023-05-16T01:28:14;2.70;;;2.60;;
14900;SDS011;7542;49.078;9.194;2023-05-16T01:29:18;3.13;;;2.80;;
14900;SDS011;7542;49.078;9.194;2023-05-16T01:30:20;2.70;;;2.60;;
14900;SDS011;7542;49.078;9.194;2023-05-16T01:31:22;3.00;;;2.80;;
14900;SDS011;7542;49.078;9.194;2023-05-16T01:32:25;2.73;;;2.60;;
14900;SDS011;7542;49.078;9.194;2023-05-16T01:33:27;2.77;;;2.67;;
14900;SDS011;7542;49.078;9.194;2023-05-16T01:34:29;2.80;;;2.60;;
14900;SDS011;7542;49.078;9.194;2023-05-16T01:35:31;2.30;;;2.20;;
14900;SDS011;7542;49.078;9.194;2023-05-16T01:36:42;2.83;;;2.63;;
14900;SDS011;7542;49.078;9.194;2023-05-16T01:39:44;2.67;;;2.57;;
14900;SDS011;7542;49.078;9.194;2023-05-16T01:42:18;3.00;;;2.90;;
14900;SDS011;7542;49.078;9.194;2023-05-16T01:43:29;2.80;;;2.70;;
14900;SDS011;7542;49.078;9.194;2023-05-16T01:44:41;2.80;;;2.70;;
14900;SDS011;7542;49.078;9.194;2023-05-16T01:46:09;2.80;;;2.70;;
14900;SDS011;7542;49.078;9.194;2023-05-16T01:47:16;2.80;;;2.60;;
14900;SDS011;7542;49.078;9.194;2023-05-16T01:48:22;2.83;;;2.73;;
14900;SDS011;7542;49.078;9.194;2023-05-16T01:49:35;2.77;;;2.60;;
14900;SDS011;7542;49.078;9.194;2023-05-16T01:50:45;2.80;;;2.70;;
14900;SDS011;7542;49.078;9.194;2023-05-16T01:51:59;2.80;;;2.70;;
14900;SDS011;7542;49.078;9.194;2023-05-16T01:53:06;2.67;;;2.53;;
14900;SDS011;7542;49.078;9.194;2023-05-16T01:54:14;3.03;;;2.93;;
14900;SDS011;7542;49.078;9.194;2023-05-16T01:55:24;3.07;;;2.87;;
14900;SDS011;7542;49.078;9.194;2023-05-16T01:56:37;2.53;;;2.43;;
14900;SDS011;7542;49.078;9.194;2023-05-16T01:57:49;2.23;;;2.13;;
14900;SDS011;7542;49.078;9.194;2023-05-16T01:58:53;2.87;;;2.77;;
14900;SDS011;7542;49.078;9.194;2023-05-16T01:59:58;2.60;;;2.50;;
14900;SDS011;7542;49.078;9.194;2023-05-16T02:01:01;2.77;;;2.67;;
14900;SDS011;7542;49.078;9.194;2023-05-16T02:02:07;2.27;;;2.20;;
14900;SDS011;7542;49.078;9.194;2023-05-16T02:03:09;2.77;;;2.67;;
14900;SDS011;7542;49.078;9.194;2023-05-16T02:04:11;2.80;;;2.70;;
14900;SDS011;7542;49.078;9.194;2023-05-16T02:05:15;2.97;;;2.83;;
14900;SDS011;7542;49.078;9.194;2023-05-16T02:06:17;2.83;;;2.63;;
14900;SDS011;7542;49.078;9.194;2023-05-16T02:07:19;2.80;;;2.70;;
14900;SDS011;7542;49.078;9.194;2023-05-16T02:08:22;2.73;;;2.60;;
14900;SDS011;7542;49.078;9.194;2023-05-16T02:09:26;2.77;;;2.67;;
14900;SDS011;7542;49.078;9.194;2023-05-16T02:10:28;2.50;;;2.40;;
14900;SDS011;7542;49.078;9.194;2023-05-16T02:11:31;2.50;;;2.40;;
14900;SDS011;7542;49.078;9.194;2023-05-16T02:12:33;3.47;;;2.83;;
14900;SDS011;7542;49.078;9.194;2023-05-16T02:13:35;2.80;;;2.60;;
14900;SDS011;7542;49.078;9.194;2023-05-16T02:14:37;2.70;;;2.60;;
14900;SDS011;7542;49.078;9.194;2023-05-16T02:15:39;2.77;;;2.67;;
14900;SDS011;7542;49.078;9.194;2023-05-16T02:16:41;2.77;;;2.57;;
14900;SDS011;7542;49.078;9.194;2023-05-16T02:17:43;2.80;;;2.70;;
14900;SDS011;7542;49.078;9.194;2023-05-16T02:18:45;2.93;;;2.83;;
14900;SDS011;7542;49.078;9.194;2023-05-16T02:19:48;2.70;;;2.60;;
14900;SDS011;7542;49.078;9.194;2023-05-16T02:20:50;2.50;;;2.30;;
14900;SDS011;7542;49.078;9.194;2023-05-16T02:21:52;2.57;;;2.43;;
14900;SDS011;7542;49.078;9.194;2023-05-16T02:22:54;2.90;;;2.80;;
14900;SDS011;7542;49.078;9.194;2023-05-16T02:23:56;3.07;;;2.97;;
14900;SDS011;7542;49.078;9.194;2023-05-16T02:24:59;3.17;;;2.40;;
14900;SDS011;7542;49.078;9.194;2023-05-16T02:26:03;2.50;;;2.40;;
14900;SDS011;7542;49.078;9.194;2023-05-16T02:27:05;3.10;;;2.90;;
14900;SDS011;7542;49.078;9.194;2023-05-16T02:28:07;2.87;;;2.67;;
14900;SDS011;7542;49.078;9.194;2023-05-16T02:29:09;2.73;;;2.63;;
14900;SDS011;7542;49.078;9.194;2023-05-16T02:30:11;3.10;;;3.00;;
14900;SDS011;7542;49.078;9.194;2023-05-16T02:31:24;2.90;;;2.50;;
14900;SDS011;7542;49.078;9.194;2023-05-16T02:32:31;3.10;;;3.00;;
14900;SDS011;7542;49.078;9.194;2023-05-16T02:33:34;2.60;;;2.50;;
14900;SDS011;7542;49.078;9.194;2023-05-16T02:34:36;2.70;;;2.60;;
14900;SDS011;7542;49.078;9.194;2023-05-16T02:35:38;2.73;;;2.63;;
14900;SDS011;7542;49.078;9.194;2023-05-16T02:36:40;2.87;;;2.67;;
14900;SDS011;7542;49.078;9.194;2023-05-16T02:37:41;2.83;;;2.63;;
14900;SDS011;7542;49.078;9.194;2023-05-16T02:38:43;2.80;;;2.70;;
14900;SDS011;7542;49.078;9.194;2023-05-16T02:39:45;3.30;;;3.00;;
14900;SDS011;7542;49.078;9.194;2023-05-16T02:40:47;2.83;;;2.63;;
14900;SDS011;7542;49.078;9.194;2023-05-16T02:41:50;3.07;;;2.87;;
14900;SDS011;7542;49.078;9.194;2023-05-16T02:42:52;2.83;;;2.73;;
14900;SDS011;7542;49.078;9.194;2023-05-16T02:43:55;3.27;;;3.03;;
14900;SDS011;7542;49.078;9.194;2023-05-16T02:44:56;2.97;;;2.87;;
14900;SDS011;7542;49.078;9.194;2023-05-16T02:45:58;3.17;;;2.97;;
14900;SDS011;7542;49.078;9.194;2023-05-16T02:47:01;3.30;;;3.07;;
14900;SDS011;7542;49.078;9.194;2023-05-16T02:48:03;2.73;;;2.63;;
14900;SDS011;7542;49.078;9.194;2023-05-16T02:49:05;3.23;;;3.13;;
14900;SDS011;7542;49.078;9.194;2023-05-16T02:50:07;2.90;;;2.80;;
14900;SDS011;7542;49.078;9.194;2023-05-16T02:51:09;3.13;;;2.90;;
14900;SDS011;7542;49.078;9.194;2023-05-16T02:52:11;3.17;;;2.97;;
14900;SDS011;7542;49.078;9.194;2023-05-16T02:53:13;3.10;;;2.97;;
14900;SDS011;7542;49.078;9.194;2023-05-16T02:54:15;2.87;;;2.77;;
14900;SDS011;7542;49.078;9.194;2023-05-16T02:55:18;3.03;;;2.83;;
14900;SDS011;7542;49.078;9.194;2023-05-16T02:56:22;3.00;;;2.90;;
14900;SDS011;7542;49.078;9.194;2023-05-16T02:57:24;3.10;;;3.00;;
14900;SDS011;7542;49.078;9.194;2023-05-16T02:58:26;3.00;;;2.80;;
14900;SDS011;7542;49.078;9.194;2023-05-16T02:59:28;3.00;;;2.80;;
14900;SDS011;7542;49.078;9.194;2023-05-16T03:00:31;2.87;;;2.77;;
14900;SDS011;7542;49.078;9.194;2023-05-16T03:01:33;3.13;;;3.00;;
14900;SDS011;7542;49.078;9.194;2023-05-16T03:02:34;2.97;;;2.87;;
14900;SDS011;7542;49.078;9.194;2023-05-16T03:03:37;3.30;;;3.10;;
14900;SDS011;7542;49.078;9.194;2023-05-16T03:04:39;3.20;;;3.10;;
14900;SDS011;7542;49.078;9.194;2023-05-16T03:05:41;3.43;;;3.23;;
14900;SDS011;7542;49.078;9.194;2023-05-16T03:06:43;3.07;;;2.73;;
14900;SDS011;7542;49.078;9.194;2023-05-16T03:07:45;3.23;;;3.13;;
14900;SDS011;7542;49.078;9.194;2023-05-16T03:08:49;3.07;;;2.97;;
14900;SDS011;7542;49.078;9.194;2023-05-16T03:09:51;3.10;;;3.00;;
14900;SDS011;7542;49.078;9.194;2023-05-16T03:10:53;2.93;;;2.83;;
14900;SDS011;7542;49.078;9.194;2023-05-16T03:11:55;3.00;;;2.90;;
14900;SDS011;7542;49.078;9.194;2023-05-16T03:12:57;3.10;;;3.00;;
14900;SDS011;7542;49.078;9.194;2023-05-16T03:13:59;2.90;;;2.80;;
14900;SDS011;7542;49.078;9.194;2023-05-16T03:15:02;3.10;;;2.90;;
14900;SDS011;7542;49.078;9.194;2023-05-16T03:16:04;3.40;;;3.20;;
14900;SDS011;7542;49.078;9.194;2023-05-16T03:17:06;2.70;;;2.60;;
14900;SDS011;7542;49.078;9.194;2023-05-16T03:18:09;3.00;;;2.90;;
14900;SDS011;7542;49.078;9.194;2023-05-16T03:19:11;3.00;;;2.90;;
14900;SDS011;7542;49.078;9.194;2023-05-16T03:20:14;2.60;;;2.50;;
14900;SDS011;7542;49.078;9.194;2023-05-16T03:21:16;2.90;;;2.80;;
14900;SDS011;7542;49.078;9.194;2023-05-16T03:22:18;3.30;;;3.10;;
14900;SDS011;7542;49.078;9.194;2023-05-16T03:23:20;2.77;;;2.67;;
14900;SDS011;7542;49.078;9.194;2023-05-16T03:24:22;3.13;;;2.93;;
14900;SDS011;7542;49.078;9.194;2023-05-16T03:25:25;2.63;;;2.53;;
14900;SDS011;7542;49.078;9.194;2023-05-16T03:26:27;3.07;;;2.97;;
14900;SDS011;7542;49.078;9.194;2023-05-16T03:27:29;2.60;;;2.50;;
14900;SDS011;7542;49.078;9.194;2023-05-16T03:28:31;2.60;;;2.50;;
14900;SDS011;7542;49.078;9.194;2023-05-16T03:29:33;3.00;;;2.80;;
14900;SDS011;7542;49.078;9.194;2023-05-16T03:30:36;2.60;;;2.50;;
14900;SDS011;7542;49.078;9.194;2023-05-16T03:31:38;2.83;;;2.60;;
14900;SDS011;7542;49.078;9.194;2023-05-16T03:32:41;2.53;;;2.43;;
14900;SDS011;7542;49.078;9.194;2023-05-16T03:33:46;2.60;;;2.50;;
14900;SDS011;7542;49.078;9.194;2023-05-16T03:34:48;2.57;;;2.47;;
14900;SDS011;7542;49.078;9.194;2023-05-16T03:35:50;2.80;;;2.70;;
14900;SDS011;7542;49.078;9.194;2023-05-16T03:36:52;3.60;;;3.10;;
14900;SDS011;7542;49.078;9.194;2023-05-16T03:37:54;2.90;;;2.80;;
14900;SDS011;7542;49.078;9.194;2023-05-16T03:38:56;3.03;;;2.93;;
14900;SDS011;7542;49.078;9.194;2023-05-16T03:39:59;2.77;;;2.67;;
14900;SDS011;7542;49.078;9.194;2023-05-16T03:41:02;3.33;;;3.13;;
14900;SDS011;7542;49.078;9.194;2023-05-16T03:42:04;2.90;;;2.80;;
14900;SDS011;7542;49.078;9.194;2023-05-16T03:43:05;3.13;;;3.00;;
14900;SDS011;7542;49.078;9.194;2023-05-16T03:44:07;3.23;;;3.00;;
14900;SDS011;7542;49.078;9.194;2023-05-16T03:45:11;3.00;;;2.90;;
14900;SDS011;7542;49.078;9.194;2023-05-16T03:46:13;3.50;;;3.30;;
14900;SDS011;7542;49.078;9.194;2023-05-16T03:47:15;3.17;;;3.07;;
14900;SDS011;7542;49.078;9.194;2023-05-16T03:48:17;3.17;;;2.90;;
14900;SDS011;7542;49.078;9.194;2023-05-16T03:49:19;3.03;;;2.93;;
14900;SDS011;7542;49.078;9.194;2023-05-16T03:50:27;2.97;;;2.80;;
14900;SDS011;7542;49.078;9.194;2023-05-16T03:51:29;3.20;;;3.00;;
14900;SDS011;7542;49.078;9.194;2023-05-16T03:52:32;3.10;;;3.00;;
14900;SDS011;7542;49.078;9.194;2023-05-16T03:53:35;2.93;;;2.83;;
14900;SDS011;7542;49.078;9.194;2023-05-16T03:54:38;3.20;;;3.10;;
14900;SDS011;7542;49.078;9.194;2023-05-16T03:55:40;3.20;;;3.00;;
14900;SDS011;7542;49.078;9.194;2023-05-16T03:56:42;2.90;;;2.77;;
14900;SDS011;7542;49.078;9.194;2023-05-16T03:57:44;2.80;;;2.70;;
14900;SDS011;7542;49.078;9.194;2023-05-16T03:58:47;3.03;;;2.93;;
14900;SDS011;7542;49.078;9.194;2023-05-16T03:59:48;3.07;;;2.90;;
14900;SDS011;7542;49.078;9.194;2023-05-16T04:00:50;2.90;;;2.80;;
14900;SDS011;7542;49.078;9.194;2023-05-16T04:01:52;2.83;;;2.73;;
14900;SDS011;7542;49.078;9.194;2023-05-16T04:02:54;2.93;;;2.83;;
14900;SDS011;7542;49.078;9.194;2023-05-16T04:03:56;2.80;;;2.70;;
14900;SDS011;7542;49.078;9.194;2023-05-16T04:04:58;3.20;;;3.00;;
14900;SDS011;7542;49.078;9.194;2023-05-16T04:06:01;2.70;;;2.60;;
14900;SDS011;7542;49.078;9.194;2023-05-16T04:07:03;2.70;;;2.60;;
14900;SDS011;7542;49.078;9.194;2023-05-16T04:08:05;2.60;;;2.50;;
14900;SDS011;7542;49.078;9.194;2023-05-16T04:09:07;2.90;;;2.80;;
14900;SDS011;7542;49.078;9.194;2023-05-16T04:10:10;2.97;;;2.87;;
14900;SDS011;7542;49.078;9.194;2023-05-16T04:11:12;3.10;;;2.90;;
14900;SDS011;7542;49.078;9.194;2023-05-16T04:12:15;2.97;;;2.87;;
14900;SDS011;7542;49.078;9.194;2023-05-16T04:13:17;3.00;;;2.83;;
14900;SDS011;7542;49.078;9.194;2023-05-16T04:14:19;2.90;;;2.80;;
14900;SDS011;7542;49.078;9.194;2023-05-16T04:15:21;2.93;;;2.83;;
14900;SDS011;7542;49.078;9.194;2023-05-16T04:16:24;2.63;;;2.53;;
14900;SDS011;7542;49.078;9.194;2023-05-16T04:17:26;2.40;;;2.30;;
14900;SDS011;7542;49.078;9.194;2023-05-16T04:18:28;2.50;;;2.40;;
14900;SDS011;7542;49.078;9.194;2023-05-16T04:19:30;2.60;;;2.50;;
14900;SDS011;7542;49.078;9.194;2023-05-16T04:20:32;2.70;;;2.60;;
14900;SDS011;7542;49.078;9.194;2023-05-16T04:21:34;2.77;;;2.67;;
14900;SDS011;7542;49.078;9.194;2023-05-16T04:22:36;2.70;;;2.60;;
14900;SDS011;7542;49.078;9.194;2023-05-16T04:23:38;2.60;;;2.43;;
14900;SDS011;7542;49.078;9.194;2023-05-16T04:24:40;2.63;;;2.53;;
14900;SDS011;7542;49.078;9.194;2023-05-16T04:25:42;3.03;;;2.83;;
14900;SDS011;7542;49.078;9.194;2023-05-16T04:26:46;2.40;;;2.30;;
14900;SDS011;7542;49.078;9.194;2023-05-16T04:27:48;2.67;;;2.57;;
14900;SDS011;7542;49.078;9.194;2023-05-16T04:28:50;2.57;;;2.43;;
14900;SDS011;7542;49.078;9.194;2023-05-16T04:29:52;2.90;;;2.70;;
14900;SDS011;7542;49.078;9.194;2023-05-16T04:30:55;2.50;;;2.40;;
14900;SDS011;7542;49.078;9.194;2023-05-16T04:31:57;2.60;;;2.50;;
14900;SDS011;7542;49.078;9.194;2023-05-16T04:32:59;3.07;;;2.87;;
14900;SDS011;7542;49.078;9.194;2023-05-16T04:34:01;2.97;;;2.83;;
14900;SDS011;7542;49.078;9.194;2023-05-16T04:35:04;2.80;;;2.60;;
14900;SDS011;7542;49.078;9.194;2023-05-16T04:36:07;2.57;;;2.47;;
14900;SDS011;7542;49.078;9.194;2023-05-16T04:37:09;3.03;;;2.83;;
14900;SDS011;7542;49.078;9.194;2023-05-16T04:38:11;2.57;;;2.47;;
14900;SDS011;7542;49.078;9.194;2023-05-16T04:39:13;2.37;;;2.27;;
14900;SDS011;7542;49.078;9.194;2023-05-16T04:40:15;2.80;;;2.70;;
14900;SDS011;7542;49.078;9.194;2023-05-16T04:41:18;3.07;;;2.87;;
14900;SDS011;7542;49.078;9.194;2023-05-16T04:42:20;2.93;;;2.73;;
14900;SDS011;7542;49.078;9.194;2023-05-16T04:43:22;2.90;;;2.77;;
14900;SDS011;7542;49.078;9.194;2023-05-16T04:44:24;2.90;;;2.80;;
14900;SDS011;7542;49.078;9.194;2023-05-16T04:45:27;3.10;;;2.90;;
14900;SDS011;7542;49.078;9.194;2023-05-16T04:46:29;2.73;;;2.63;;
14900;SDS011;7542;49.078;9.194;2023-05-16T04:47:32;2.97;;;2.87;;
14900;SDS011;7542;49.078;9.194;2023-05-16T04:48:36;3.00;;;2.80;;
14900;SDS011;7542;49.078;9.194;2023-05-16T04:49:38;2.60;;;2.50;;
14900;SDS011;7542;49.078;9.194;2023-05-16T04:50:40;3.07;;;2.73;;
14900;SDS011;7542;49.078;9.194;2023-05-16T04:51:42;2.83;;;2.73;;
14900;SDS011;7542;49.078;9.194;2023-05-16T04:52:44;3.17;;;2.97;;
14900;SDS011;7542;49.078;9.194;2023-05-16T04:53:46;2.90;;;2.80;;
14900;SDS011;7542;49.078;9.194;2023-05-16T04:54:51;2.80;;;2.70;;
14900;SDS011;7542;49.078;9.194;2023-05-16T04:55:53;2.97;;;2.77;;
14900;SDS011;7542;49.078;9.194;2023-05-16T04:56:55;2.57;;;2.47;;
14900;SDS011;7542;49.078;9.194;2023-05-16T04:57:57;2.87;;;2.77;;
14900;SDS011;7542;49.078;9.194;2023-05-16T04:58:59;2.87;;;2.77;;
14900;SDS011;7542;49.078;9.194;2023-05-16T05:00:01;2.90;;;2.70;;
14900;SDS011;7542;49.078;9.194;2023-05-16T05:01:07;3.10;;;2.97;;
14900;SDS011;7542;49.078;9.194;2023-05-16T05:02:09;2.80;;;2.70;;
14900;SDS011;7542;49.078;9.194;2023-05-16T05:03:11;3.17;;;2.97;;
14900;SDS011;7542;49.078;9.194;2023-05-16T05:04:13;3.50;;;3.30;;
14900;SDS011;7542;49.078;9.194;2023-05-16T05:05:16;2.90;;;2.70;;
14900;SDS011;7542;49.078;9.194;2023-05-16T05:06:18;2.93;;;2.73;;
14900;SDS011;7542;49.078;9.194;2023-05-16T05:07:20;3.30;;;3.10;;
14900;SDS011;7542;49.078;9.194;2023-05-16T05:08:22;3.20;;;3.10;;
14900;SDS011;7542;49.078;9.194;2023-05-16T05:09:24;3.23;;;3.03;;
14900;SDS011;7542;49.078;9.194;2023-05-16T05:10:27;2.87;;;2.77;;
14900;SDS011;7542;49.078;9.194;2023-05-16T05:11:31;3.03;;;2.90;;
14900;SDS011;7542;49.078;9.194;2023-05-16T05:12:34;3.23;;;3.03;;
14900;SDS011;7542;49.078;9.194;2023-05-16T05:13:36;3.50;;;3.20;;
14900;SDS011;7542;49.078;9.194;2023-05-16T05:14:38;3.57;;;3.27;;
14900;SDS011;7542;49.078;9.194;2023-05-16T05:15:40;3.10;;;3.00;;
14900;SDS011;7542;49.078;9.194;2023-05-16T05:16:42;3.33;;;3.03;;
14900;SDS011;7542;49.078;9.194;2023-05-16T05:17:44;3.17;;;3.07;;
14900;SDS011;7542;49.078;9.194;2023-05-16T05:18:46;3.30;;;3.10;;
14900;SDS011;7542;49.078;9.194;2023-05-16T05:19:48;3.20;;;3.00;;
14900;SDS011;7542;49.078;9.194;2023-05-16T05:20:50;3.47;;;3.27;;
14900;SDS011;7542;49.078;9.194;2023-05-16T05:21:53;3.20;;;3.00;;
14900;SDS011;7542;49.078;9.194;2023-05-16T05:22:54;2.97;;;2.87;;
14900;SDS011;7542;49.078;9.194;2023-05-16T05:23:57;3.20;;;3.00;;
14900;SDS011;7542;49.078;9.194;2023-05-16T05:24:59;2.67;;;2.57;;
14900;SDS011;7542;49.078;9.194;2023-05-16T05:26:01;2.90;;;2.70;;
14900;SDS011;7542;49.078;9.194;2023-05-16T05:27:03;3.27;;;2.70;;
14900;SDS011;7542;49.078;9.194;2023-05-16T05:28:05;2.93;;;2.63;;
14900;SDS011;7542;49.078;9.194;2023-05-16T05:29:07;3.10;;;3.00;;
14900;SDS011;7542;49.078;9.194;2023-05-16T05:30:09;3.27;;;3.07;;
14900;SDS011;7542;49.078;9.194;2023-05-16T05:31:11;3.53;;;3.33;;
14900;SDS011;7542;49.078;9.194;2023-05-16T05:32:14;3.10;;;3.00;;
14900;SDS011;7542;49.078;9.194;2023-05-16T05:33:16;2.63;;;2.53;;
14900;SDS011;7542;49.078;9.194;2023-05-16T05:34:19;2.63;;;2.53;;
14900;SDS011;7542;49.078;9.194;2023-05-16T05:35:21;3.40;;;3.17;;
14900;SDS011;7542;49.078;9.194;2023-05-16T05:36:24;3.30;;;3.20;;
14900;SDS011;7542;49.078;9.194;2023-05-16T05:37:26;3.20;;;3.00;;
14900;SDS011;7542;49.078;9.194;2023-05-16T05:38:28;3.00;;;2.80;;
14900;SDS011;7542;49.078;9.194;2023-05-16T05:39:31;3.13;;;2.83;;
14900;SDS011;7542;49.078;9.194;2023-05-16T05:40:33;3.30;;;3.10;;
14900;SDS011;7542;49.078;9.194;2023-05-16T05:41:36;3.13;;;2.93;;
14900;SDS011;7542;49.078;9.194;2023-05-16T05:42:38;3.10;;;2.90;;
14900;SDS011;7542;49.078;9.194;2023-05-16T05:43:41;2.97;;;2.80;;
14900;SDS011;7542;49.078;9.194;2023-05-16T05:44:43;3.17;;;2.90;;
14900;SDS011;7542;49.078;9.194;2023-05-16T05:45:46;2.90;;;2.77;;
14900;SDS011;7542;49.078;9.194;2023-05-16T05:46:48;5.47;;;2.90;;
14900;SDS011;7542;49.078;9.194;2023-05-16T05:47:51;3.03;;;2.90;;
14900;SDS011;7542;49.078;9.194;2023-05-16T05:48:53;2.90;;;2.80;;
14900;SDS011;7542;49.078;9.194;2023-05-16T05:49:56;3.20;;;2.90;;
14900;SDS011;7542;49.078;9.194;2023-05-16T05:50:59;3.00;;;2.80;;
14900;SDS011;7542;49.078;9.194;2023-05-16T05:52:01;3.73;;;2.60;;
14900;SDS011;7542;49.078;9.194;2023-05-16T05:53:04;2.80;;;2.60;;
14900;SDS011;7542;49.078;9.194;2023-05-16T05:54:06;3.17;;;2.97;;
14900;SDS011;7542;49.078;9.194;2023-05-16T05:55:09;2.73;;;2.60;;
14900;SDS011;7542;49.078;9.194;2023-05-16T05:56:11;3.00;;;2.90;;
14900;SDS011;7542;49.078;9.194;2023-05-16T05:57:13;2.97;;;2.77;;
14900;SDS011;7542;49.078;9.194;2023-05-16T05:58:16;4.70;;;2.63;;
14900;SDS011;7542;49.078;9.194;2023-05-16T05:59:18;2.20;;;2.10;;
14900;SDS011;7542;49.078;9.194;2023-05-16T06:00:21;2.20;;;2.10;;
14900;SDS011;7542;49.078;9.194;2023-05-16T06:01:23;2.70;;;2.50;;
14900;SDS011;7542;49.078;9.194;2023-05-16T06:02:26;2.43;;;2.33;;
14900;SDS011;7542;49.078;9.194;2023-05-16T06:03:29;2.90;;;2.60;;
14900;SDS011;7542;49.078;9.194;2023-05-16T06:04:32;2.70;;;2.60;;
14900;SDS011;7542;49.078;9.194;2023-05-16T06:05:34;2.83;;;2.63;;
14900;SDS011;7542;49.078;9.194;2023-05-16T06:06:37;2.40;;;2.30;;
14900;SDS011;7542;49.078;9.194;2023-05-16T06:07:40;4.00;;;2.40;;
14900;SDS011;7542;49.078;9.194;2023-05-16T06:08:42;4.17;;;2.93;;
14900;SDS011;7542;49.078;9.194;2023-05-16T06:09:45;2.70;;;2.60;;
14900;SDS011;7542;49.078;9.194;2023-05-16T06:10:47;3.27;;;3.00;;
14900;SDS011;7542;49.078;9.194;2023-05-16T06:11:50;3.23;;;2.93;;
14900;SDS011;7542;49.078;9.194;2023-05-16T06:12:52;2.57;;;2.47;;
14900;SDS011;7542;49.078;9.194;2023-05-16T06:13:55;3.17;;;2.97;;
14900;SDS011;7542;49.078;9.194;2023-05-16T06:14:57;3.53;;;2.90;;
14900;SDS011;7542;49.078;9.194;2023-05-16T06:16:00;2.90;;;2.80;;
14900;SDS011;7542;49.078;9.194;2023-05-16T06:17:02;2.90;;;2.70;;
14900;SDS011;7542;49.078;9.194;2023-05-16T06:18:05;3.13;;;2.93;;
14900;SDS011;7542;49.078;9.194;2023-05-16T06:19:07;2.93;;;2.83;;
14900;SDS011;7542;49.078;9.194;2023-05-16T06:20:10;4.00;;;3.03;;
14900;SDS011;7542;49.078;9.194;2023-05-16T06:21:13;2.53;;;2.43;;
14900;SDS011;7542;49.078;9.194;2023-05-16T06:22:15;3.03;;;2.57;;
14900;SDS011;7542;49.078;9.194;2023-05-16T06:23:17;3.90;;;2.57;;
14900;SDS011;7542;49.078;9.194;2023-05-16T06:24:21;2.97;;;2.77;;
14900;SDS011;7542;49.078;9.194;2023-05-16T06:25:24;3.17;;;2.57;;
14900;SDS011;7542;49.078;9.194;2023-05-16T06:26:26;2.60;;;2.50;;
14900;SDS011;7542;49.078;9.194;2023-05-16T06:27:29;3.20;;;3.00;;
14900;SDS011;7542;49.078;9.194;2023-05-16T06:28:31;2.43;;;2.33;;
14900;SDS011;7542;49.078;9.194;2023-05-16T06:29:33;2.80;;;2.60;;
14900;SDS011;7542;49.078;9.194;2023-05-16T06:30:36;3.10;;;2.90;;
14900;SDS011;7542;49.078;9.194;2023-05-16T06:31:39;3.00;;;2.40;;
14900;SDS011;7542;49.078;9.194;2023-05-16T06:32:41;2.70;;;2.60;;
14900;SDS011;7542;49.078;9.194;2023-05-16T06:33:44;2.87;;;2.67;;
14900;SDS011;7542;49.078;9.194;2023-05-16T06:34:47;2.87;;;2.67;;
14900;SDS011;7542;49.078;9.194;2023-05-16T06:35:50;3.20;;;2.70;;